sensor_id;sensor_type;location;lat;lon;timestamp;pressure;altitude;pressure_sealevel;temperature;humidity
13478;BME280;12598;62.382;17.344;2024-03-07T00:00:20;102992.16;;;18.23;21.99
13478;BME280;12598;62.382;17.344;2024-03-07T00:01:23;103010.66;;;18.27;22.08
13478;BME280;12598;62.382;17.344;2024-03-07T00:02:28;103001.66;;;18.28;21.97
13478;BME280;12598;62.382;17.344;2024-03-07T00:03:30;102989.59;;;18.21;22.44
13478;BME280;12598;62.382;17.344;2024-03-07T00:04:32;103012.47;;;18.27;22.42
13478;BME280;12598;62.382;17.344;2024-03-07T00:05:34;103003.59;;;18.26;22.07
13478;BME280;12598;62.382;17.344;2024-03-07T00:06:36;103002.72;;;18.26;22.41
13478;BME280;12598;62.382;17.344;2024-03-07T00:07:38;102989.59;;;18.21;22.00
13478;BME280;12598;62.382;17.344;2024-03-07T00:08:40;102991.50;;;18.19;22.23
13478;BME280;12598;62.382;17.344;2024-03-07T00:09:42;102990.63;;;18.19;22.46
13478;BME280;12598;62.382;17.344;2024-03-07T00:10:44;103000.94;;;18.25;22.33
13478;BME280;12598;62.382;17.344;2024-03-07T00:11:47;103002.72;;;18.26;22.06
13478;BME280;12598;62.382;17.344;2024-03-07T00:12:48;103001.81;;;18.25;22.22
13478;BME280;12598;62.382;17.344;2024-03-07T00:13:50;103002.72;;;18.26;22.45
13478;BME280;12598;62.382;17.344;2024-03-07T00:14:52;102994.66;;;18.26;21.91
13478;BME280;12598;62.382;17.344;2024-03-07T00:15:54;103002.78;;;18.24;22.17
13478;BME280;12598;62.382;17.344;2024-03-07T00:16:56;102992.47;;;18.18;22.23
13478;BME280;12598;62.382;17.344;2024-03-07T00:17:59;102998.28;;;18.25;22.41
13478;BME280;12598;62.382;17.344;2024-03-07T00:19:02;102999.22;;;18.24;22.04
13478;BME280;12598;62.382;17.344;2024-03-07T00:20:05;102989.78;;;18.18;22.07
13478;BME280;12598;62.382;17.344;2024-03-07T00:21:11;102995.59;;;18.25;21.96
13478;BME280;12598;62.382;17.344;2024-03-07T00:22:14;102999.22;;;18.24;22.28
13478;BME280;12598;62.382;17.344;2024-03-07T00:23:16;102994.81;;;18.23;22.11
13478;BME280;12598;62.382;17.344;2024-03-07T00:24:18;102994.94;;;18.21;22.35
13478;BME280;12598;62.382;17.344;2024-03-07T00:25:20;102997.63;;;18.21;22.39
13478;BME280;12598;62.382;17.344;2024-03-07T00:26:23;102994.94;;;18.21;21.92
13478;BME280;12598;62.382;17.344;2024-03-07T00:27:25;103000.28;;;18.21;21.84
13478;BME280;12598;62.382;17.344;2024-03-07T00:28:27;102978.06;;;18.05;22.16
13478;BME280;12598;62.382;17.344;2024-03-07T00:29:34;103002.88;;;18.23;22.07
13478;BME280;12598;62.382;17.344;2024-03-07T00:30:39;103002.00;;;18.22;22.36
13478;BME280;12598;62.382;17.344;2024-03-07T00:31:41;103000.28;;;18.21;22.11
13478;BME280;12598;62.382;17.344;2024-03-07T00:32:44;103003.81;;;18.22;22.11
13478;BME280;12598;62.382;17.344;2024-03-07T00:33:46;103000.19;;;18.23;22.24
13478;BME280;12598;62.382;17.344;2024-03-07T00:35:07;102998.28;;;18.25;22.29
13478;BME280;12598;62.382;17.344;2024-03-07T00:36:11;103006.31;;;18.25;22.37
13478;BME280;12598;62.382;17.344;2024-03-07T00:37:14;102989.09;;;18.15;22.12
13478;BME280;12598;62.382;17.344;2024-03-07T00:38:16;103002.88;;;18.23;22.36
13478;BME280;12598;62.382;17.344;2024-03-07T00:39:18;103000.28;;;18.21;21.83
13478;BME280;12598;62.382;17.344;2024-03-07T00:40:21;102992.16;;;18.23;22.37
13478;BME280;12598;62.382;17.344;2024-03-07T00:41:23;102973.41;;;18.09;22.12
13478;BME280;12598;62.382;17.344;2024-03-07T00:42:26;102998.56;;;18.20;21.95
13478;BME280;12598;62.382;17.344;2024-03-07T00:43:29;102989.09;;;18.15;22.18
13478;BME280;12598;62.382;17.344;2024-03-07T00:44:30;102999.53;;;18.19;22.24
13478;BME280;12598;62.382;17.344;2024-03-07T00:45:32;102987.88;;;18.20;22.29
13478;BME280;12598;62.382;17.344;2024-03-07T00:46:35;102997.88;;;18.17;22.12
13478;BME280;12598;62.382;17.344;2024-03-07T00:47:37;102993.28;;;18.19;22.17
13478;BME280;12598;62.382;17.344;2024-03-07T00:48:40;102991.56;;;18.18;22.22
13478;BME280;12598;62.382;17.344;2024-03-07T00:49:42;102991.69;;;18.16;22.22
13478;BME280;12598;62.382;17.344;2024-03-07T00:50:43;102992.53;;;18.17;21.70
13478;BME280;12598;62.382;17.344;2024-03-07T00:51:45;102974.09;;;18.12;22.01
13478;BME280;12598;62.382;17.344;2024-03-07T00:52:47;102992.53;;;18.17;22.32
13478;BME280;12598;62.382;17.344;2024-03-07T00:53:50;102994.38;;;18.16;21.78
13478;BME280;12598;62.382;17.344;2024-03-07T00:54:51;102991.78;;;18.15;21.94
13478;BME280;12598;62.382;17.344;2024-03-07T00:55:53;102989.09;;;18.15;21.92
13478;BME280;12598;62.382;17.344;2024-03-07T00:56:55;102992.72;;;18.14;22.03
13478;BME280;12598;62.382;17.344;2024-03-07T00:57:57;102995.41;;;18.14;21.97
13478;BME280;12598;62.382;17.344;2024-03-07T00:58:59;102990.91;;;18.14;22.29
13478;BME280;12598;62.382;17.344;2024-03-07T01:00:01;102991.88;;;18.13;21.76
13478;BME280;12598;62.382;17.344;2024-03-07T01:01:03;102994.56;;;18.13;22.26
13478;BME280;12598;62.382;17.344;2024-03-07T01:02:05;102976.28;;;18.06;21.87
13478;BME280;12598;62.382;17.344;2024-03-07T01:03:06;102982.13;;;18.12;22.03
13478;BME280;12598;62.382;17.344;2024-03-07T01:04:09;102989.28;;;18.12;22.17
13478;BME280;12598;62.382;17.344;2024-03-07T01:05:10;102988.44;;;18.11;22.33
13478;BME280;12598;62.382;17.344;2024-03-07T01:06:15;102989.28;;;18.12;21.92
13478;BME280;12598;62.382;17.344;2024-03-07T01:07:17;102978.00;;;18.07;22.08
13478;BME280;12598;62.382;17.344;2024-03-07T01:08:19;102984.81;;;18.12;22.29
13478;BME280;12598;62.382;17.344;2024-03-07T01:09:21;102987.47;;;18.12;22.10
13478;BME280;12598;62.382;17.344;2024-03-07T01:10:24;102986.59;;;18.12;22.42
13478;BME280;12598;62.382;17.344;2024-03-07T01:11:26;102974.38;;;18.08;21.86
13478;BME280;12598;62.382;17.344;2024-03-07T01:12:28;102985.84;;;18.10;21.75
13478;BME280;12598;62.382;17.344;2024-03-07T01:13:36;102984.81;;;18.12;21.90
13478;BME280;12598;62.382;17.344;2024-03-07T01:14:38;102979.53;;;18.11;21.91
13478;BME280;12598;62.382;17.344;2024-03-07T01:15:40;102973.59;;;18.06;22.30
13478;BME280;12598;62.382;17.344;2024-03-07T01:16:42;102986.72;;;18.10;21.80
13478;BME280;12598;62.382;17.344;2024-03-07T01:17:44;102969.09;;;18.06;21.98
13478;BME280;12598;62.382;17.344;2024-03-07T01:18:46;102983.16;;;18.10;22.19
13478;BME280;12598;62.382;17.344;2024-03-07T01:19:48;102979.63;;;18.09;22.10
13478;BME280;12598;62.382;17.344;2024-03-07T01:20:51;102965.00;;;18.01;21.94
13478;BME280;12598;62.382;17.344;2024-03-07T01:21:53;102971.69;;;18.08;22.04
13478;BME280;12598;62.382;17.344;2024-03-07T01:22:55;102969.97;;;18.07;22.23
13478;BME280;12598;62.382;17.344;2024-03-07T01:23:59;102972.84;;;18.04;22.19
13478;BME280;12598;62.382;17.344;2024-03-07T01:25:02;102974.38;;;18.08;22.00
13478;BME280;12598;62.382;17.344;2024-03-07T01:26:03;102969.00;;;18.08;21.71
13478;BME280;12598;62.382;17.344;2024-03-07T01:27:05;102975.31;;;18.07;22.01
13478;BME280;12598;62.382;17.344;2024-03-07T01:28:07;102967.22;;;18.08;21.94
13478;BME280;12598;62.382;17.344;2024-03-07T01:29:09;102958.56;;;18.03;21.92
13478;BME280;12598;62.382;17.344;2024-03-07T01:30:11;102964.59;;;18.07;22.06
13478;BME280;12598;62.382;17.344;2024-03-07T01:31:13;102958.38;;;18.06;22.22
13478;BME280;12598;62.382;17.344;2024-03-07T01:32:15;102962.88;;;18.06;21.83
13478;BME280;12598;62.382;17.344;2024-03-07T01:33:17;102967.28;;;18.07;21.67
13478;BME280;12598;62.382;17.344;2024-03-07T01:34:19;102970.84;;;18.07;21.82
13478;BME280;12598;62.382;17.344;2024-03-07T01:35:20;102955.25;;;18.00;22.16
13478;BME280;12598;62.382;17.344;2024-03-07T01:36:22;102958.38;;;18.06;22.49
13478;BME280;12598;62.382;17.344;2024-03-07T01:37:24;102960.22;;;18.06;21.75
13478;BME280;12598;62.382;17.344;2024-03-07T01:38:26;102955.81;;;18.05;22.02
13478;BME280;12598;62.382;17.344;2024-03-07T01:39:28;102953.97;;;18.05;22.28
13478;BME280;12598;62.382;17.344;2024-03-07T01:40:30;102956.00;;;18.02;21.82
13478;BME280;12598;62.382;17.344;2024-03-07T01:41:32;102954.09;;;18.04;22.26
13478;BME280;12598;62.382;17.344;2024-03-07T01:42:36;102954.94;;;18.04;21.76
13478;BME280;12598;62.382;17.344;2024-03-07T01:43:38;102955.81;;;18.05;21.62
13478;BME280;12598;62.382;17.344;2024-03-07T01:44:40;102949.59;;;18.04;21.74
13478;BME280;12598;62.382;17.344;2024-03-07T01:45:43;102950.47;;;18.05;22.15
13478;BME280;12598;62.382;17.344;2024-03-07T01:46:45;102953.22;;;18.03;22.02
13478;BME280;12598;62.382;17.344;2024-03-07T01:47:47;102947.97;;;18.02;21.85
13478;BME280;12598;62.382;17.344;2024-03-07T01:48:49;102942.03;;;17.97;22.00
13478;BME280;12598;62.382;17.344;2024-03-07T01:49:51;102947.03;;;18.03;22.25
13478;BME280;12598;62.382;17.344;2024-03-07T01:50:53;102949.69;;;18.03;22.20
13478;BME280;12598;62.382;17.344;2024-03-07T01:51:55;102946.13;;;18.02;22.10
13478;BME280;12598;62.382;17.344;2024-03-07T01:52:59;102947.22;;;18.00;21.72
13478;BME280;12598;62.382;17.344;2024-03-07T01:54:01;102947.97;;;18.02;22.15
13478;BME280;12598;62.382;17.344;2024-03-07T01:55:04;102934.00;;;17.97;21.87
13478;BME280;12598;62.382;17.344;2024-03-07T01:56:06;102948.94;;;18.01;22.17
13478;BME280;12598;62.382;17.344;2024-03-07T01:57:08;102948.06;;;18.00;22.01
13478;BME280;12598;62.382;17.344;2024-03-07T01:58:13;102936.00;;;17.93;21.93
13478;BME280;12598;62.382;17.344;2024-03-07T01:59:18;102921.00;;;17.91;22.16
13478;BME280;12598;62.382;17.344;2024-03-07T02:00:22;102945.28;;;18.02;21.91
13478;BME280;12598;62.382;17.344;2024-03-07T02:01:24;102944.41;;;18.01;21.89
13478;BME280;12598;62.382;17.344;2024-03-07T02:02:26;102948.06;;;18.00;21.89
13478;BME280;12598;62.382;17.344;2024-03-07T02:03:29;102949.88;;;18.00;21.82
13478;BME280;12598;62.382;17.344;2024-03-07T02:04:30;102951.69;;;17.99;22.05
13478;BME280;12598;62.382;17.344;2024-03-07T02:05:33;102944.59;;;17.98;21.96
13478;BME280;12598;62.382;17.344;2024-03-07T02:06:35;102941.94;;;17.98;22.10
13478;BME280;12598;62.382;17.344;2024-03-07T02:07:37;102939.19;;;18.00;21.93
13478;BME280;12598;62.382;17.344;2024-03-07T02:08:40;102940.97;;;17.99;22.07
13478;BME280;12598;62.382;17.344;2024-03-07T02:09:42;102934.78;;;17.99;22.10
13478;BME280;12598;62.382;17.344;2024-03-07T02:10:44;102942.81;;;17.99;22.08
13478;BME280;12598;62.382;17.344;2024-03-07T02:11:48;102940.13;;;17.99;22.03
13478;BME280;12598;62.382;17.344;2024-03-07T02:12:53;102942.81;;;17.99;21.97
13478;BME280;12598;62.382;17.344;2024-03-07T02:13:54;102941.09;;;17.98;21.96
13478;BME280;12598;62.382;17.344;2024-03-07T02:14:57;102930.56;;;17.95;21.96
13478;BME280;12598;62.382;17.344;2024-03-07T02:15:59;102937.53;;;17.97;22.05
13478;BME280;12598;62.382;17.344;2024-03-07T02:17:01;102928.94;;;17.92;21.97
13478;BME280;12598;62.382;17.344;2024-03-07T02:18:03;102942.03;;;17.97;22.07
13478;BME280;12598;62.382;17.344;2024-03-07T02:19:05;102937.66;;;17.96;22.26
13478;BME280;12598;62.382;17.344;2024-03-07T02:20:08;102934.97;;;17.96;21.90
13478;BME280;12598;62.382;17.344;2024-03-07T02:21:13;102938.41;;;17.98;22.14
13478;BME280;12598;62.382;17.344;2024-03-07T02:22:15;102931.34;;;17.97;21.61
13478;BME280;12598;62.382;17.344;2024-03-07T02:23:17;102925.41;;;17.92;21.98
13478;BME280;12598;62.382;17.344;2024-03-07T02:24:18;102930.47;;;17.96;21.78
13478;BME280;12598;62.382;17.344;2024-03-07T02:25:20;102932.28;;;17.96;22.05
13478;BME280;12598;62.382;17.344;2024-03-07T02:26:22;102931.34;;;17.97;21.90
13478;BME280;12598;62.382;17.344;2024-03-07T02:27:24;102923.56;;;17.92;22.04
13478;BME280;12598;62.382;17.344;2024-03-07T02:28:26;102909.63;;;17.87;22.02
13478;BME280;12598;62.382;17.344;2024-03-07T02:29:27;102928.75;;;17.95;21.74
13478;BME280;12598;62.382;17.344;2024-03-07T02:30:29;102927.91;;;17.95;21.61
13478;BME280;12598;62.382;17.344;2024-03-07T02:31:33;102918.91;;;17.96;21.72
13478;BME280;12598;62.382;17.344;2024-03-07T02:32:38;102914.22;;;17.85;21.92
13478;BME280;12598;62.382;17.344;2024-03-07T02:33:40;102928.75;;;17.95;22.19
13478;BME280;12598;62.382;17.344;2024-03-07T02:34:43;102926.19;;;17.94;21.67
13478;BME280;12598;62.382;17.344;2024-03-07T02:35:45;102918.41;;;17.89;21.95
13478;BME280;12598;62.382;17.344;2024-03-07T02:36:47;102909.63;;;17.87;22.07
13478;BME280;12598;62.382;17.344;2024-03-07T02:37:49;102920.06;;;17.92;22.09
13478;BME280;12598;62.382;17.344;2024-03-07T02:38:51;102923.56;;;17.92;21.68
13478;BME280;12598;62.382;17.344;2024-03-07T02:39:52;102917.38;;;17.92;22.18
13478;BME280;12598;62.382;17.344;2024-03-07T02:40:54;102916.50;;;17.91;22.15
13478;BME280;12598;62.382;17.344;2024-03-07T02:41:56;102918.22;;;17.92;21.68
13478;BME280;12598;62.382;17.344;2024-03-07T02:42:58;102906.69;;;17.92;21.75
13478;BME280;12598;62.382;17.344;2024-03-07T02:44:00;102920.06;;;17.92;21.83
13478;BME280;12598;62.382;17.344;2024-03-07T02:45:05;102903.44;;;17.87;22.05
13478;BME280;12598;62.382;17.344;2024-03-07T02:46:07;102912.97;;;17.91;21.75
13478;BME280;12598;62.382;17.344;2024-03-07T02:47:08;102902.53;;;17.86;21.94
13478;BME280;12598;62.382;17.344;2024-03-07T02:48:11;102909.44;;;17.90;21.64
13478;BME280;12598;62.382;17.344;2024-03-07T02:49:13;102912.97;;;17.91;22.08
13478;BME280;12598;62.382;17.344;2024-03-07T02:50:16;102906.75;;;17.90;21.77
13478;BME280;12598;62.382;17.344;2024-03-07T02:51:18;102901.41;;;17.90;22.09
13478;BME280;12598;62.382;17.344;2024-03-07T02:52:19;102904.94;;;17.91;21.95
13478;BME280;12598;62.382;17.344;2024-03-07T02:53:21;102904.06;;;17.90;21.76
13478;BME280;12598;62.382;17.344;2024-03-07T02:54:23;102909.44;;;17.90;22.12
13478;BME280;12598;62.382;17.344;2024-03-07T02:55:25;102904.06;;;17.90;21.97
13478;BME280;12598;62.382;17.344;2024-03-07T02:56:27;102905.03;;;17.89;21.87
13478;BME280;12598;62.382;17.344;2024-03-07T02:57:29;102902.28;;;17.91;21.71
13478;BME280;12598;62.382;17.344;2024-03-07T02:58:30;102902.34;;;17.89;22.01
13478;BME280;12598;62.382;17.344;2024-03-07T02:59:32;102900.63;;;17.88;22.02
13478;BME280;12598;62.382;17.344;2024-03-07T03:00:34;102894.44;;;17.88;21.67
13478;BME280;12598;62.382;17.344;2024-03-07T03:01:36;102894.44;;;17.88;21.67
13478;BME280;12598;62.382;17.344;2024-03-07T03:02:38;102901.50;;;17.89;22.03
13478;BME280;12598;62.382;17.344;2024-03-07T03:03:40;102892.88;;;17.84;22.08
13478;BME280;12598;62.382;17.344;2024-03-07T03:04:44;102897.97;;;17.88;21.99
13478;BME280;12598;62.382;17.344;2024-03-07T03:05:45;102894.44;;;17.88;22.26
13478;BME280;12598;62.382;17.344;2024-03-07T03:06:47;102897.13;;;17.88;21.51
13478;BME280;12598;62.382;17.344;2024-03-07T03:07:49;102891.84;;;17.86;21.85
13478;BME280;12598;62.382;17.344;2024-03-07T03:08:55;102898.91;;;17.87;21.60
13478;BME280;12598;62.382;17.344;2024-03-07T03:09:57;102881.72;;;17.78;21.56
13478;BME280;12598;62.382;17.344;2024-03-07T03:10:59;102898.16;;;17.85;21.58
13478;BME280;12598;62.382;17.344;2024-03-07T03:12:01;102897.19;;;17.86;21.47
13478;BME280;12598;62.382;17.344;2024-03-07T03:13:03;102888.66;;;17.80;22.02
13478;BME280;12598;62.382;17.344;2024-03-07T03:14:05;102896.34;;;17.86;21.53
13478;BME280;12598;62.382;17.344;2024-03-07T03:15:07;102899.94;;;17.85;21.62
13478;BME280;12598;62.382;17.344;2024-03-07T03:16:09;102885.81;;;17.83;21.61
13478;BME280;12598;62.382;17.344;2024-03-07T03:17:11;102888.47;;;17.83;21.80
13478;BME280;12598;62.382;17.344;2024-03-07T03:18:13;102892.88;;;17.84;21.67
13478;BME280;12598;62.382;17.344;2024-03-07T03:19:15;102892.88;;;17.84;21.71
13478;BME280;12598;62.382;17.344;2024-03-07T03:20:17;102889.25;;;17.85;22.01
13478;BME280;12598;62.382;17.344;2024-03-07T03:21:32;102891.75;;;17.88;21.85
13478;BME280;12598;62.382;17.344;2024-03-07T03:22:35;102893.56;;;17.87;21.80
13478;BME280;12598;62.382;17.344;2024-03-07T03:23:37;102891.00;;;17.86;21.92
13478;BME280;12598;62.382;17.344;2024-03-07T03:24:38;102883.88;;;17.85;21.88
13478;BME280;12598;62.382;17.344;2024-03-07T03:25:42;102894.72;;;17.83;21.39
13478;BME280;12598;62.382;17.344;2024-03-07T03:26:44;102889.34;;;17.83;21.48
13478;BME280;12598;62.382;17.344;2024-03-07T03:27:50;102886.75;;;17.82;21.43
13478;BME280;12598;62.382;17.344;2024-03-07T03:28:51;102885.81;;;17.83;21.51
13478;BME280;12598;62.382;17.344;2024-03-07T03:29:54;102891.16;;;17.83;21.65
13478;BME280;12598;62.382;17.344;2024-03-07T03:30:56;102881.41;;;17.82;21.41
13478;BME280;12598;62.382;17.344;2024-03-07T03:31:57;102881.41;;;17.82;21.59
13478;BME280;12598;62.382;17.344;2024-03-07T03:32:59;102884.19;;;17.81;21.53
13478;BME280;12598;62.382;17.344;2024-03-07T03:34:02;102888.59;;;17.82;22.05
13478;BME280;12598;62.382;17.344;2024-03-07T03:35:04;102877.41;;;17.75;21.74
13478;BME280;12598;62.382;17.344;2024-03-07T03:36:07;102869.75;;;17.69;21.56
13478;BME280;12598;62.382;17.344;2024-03-07T03:37:08;102878.84;;;17.81;21.81
13478;BME280;12598;62.382;17.344;2024-03-07T03:38:10;102885.91;;;17.82;21.94
13478;BME280;12598;62.382;17.344;2024-03-07T03:39:12;102873.75;;;17.76;21.97
13478;BME280;12598;62.382;17.344;2024-03-07T03:40:15;102878.94;;;17.79;21.52
13478;BME280;12598;62.382;17.344;2024-03-07T03:41:17;102867.47;;;17.77;21.78
13478;BME280;12598;62.382;17.344;2024-03-07T03:42:19;102886.00;;;17.80;21.91
13478;BME280;12598;62.382;17.344;2024-03-07T03:43:21;102879.81;;;17.80;21.93
13478;BME280;12598;62.382;17.344;2024-03-07T03:44:24;102865.94;;;17.73;21.70
13478;BME280;12598;62.382;17.344;2024-03-07T03:45:26;102886.00;;;17.80;21.36
13478;BME280;12598;62.382;17.344;2024-03-07T03:46:28;102882.47;;;17.80;21.90
13478;BME280;12598;62.382;17.344;2024-03-07T03:47:29;102877.19;;;17.78;21.58
13478;BME280;12598;62.382;17.344;2024-03-07T03:48:31;102877.19;;;17.78;21.83
13478;BME280;12598;62.382;17.344;2024-03-07T03:49:35;102881.59;;;17.79;21.77
13478;BME280;12598;62.382;17.344;2024-03-07T03:50:37;102878.94;;;17.79;21.70
13478;BME280;12598;62.382;17.344;2024-03-07T03:51:39;102875.47;;;17.77;21.61
13478;BME280;12598;62.382;17.344;2024-03-07T03:52:40;102882.56;;;17.78;21.69
13478;BME280;12598;62.382;17.344;2024-03-07T03:53:42;102881.72;;;17.78;21.59
13478;BME280;12598;62.382;17.344;2024-03-07T03:54:44;102879.03;;;17.78;21.38
13478;BME280;12598;62.382;17.344;2024-03-07T03:55:46;102872.25;;;17.72;21.76
13478;BME280;12598;62.382;17.344;2024-03-07T03:56:48;102881.78;;;17.76;21.87
13478;BME280;12598;62.382;17.344;2024-03-07T03:57:50;102876.44;;;17.76;21.72
13478;BME280;12598;62.382;17.344;2024-03-07T03:58:52;102883.50;;;17.77;21.66
13478;BME280;12598;62.382;17.344;2024-03-07T03:59:53;102858.84;;;17.72;21.83
13478;BME280;12598;62.382;17.344;2024-03-07T04:00:56;102878.16;;;17.77;21.21
13478;BME280;12598;62.382;17.344;2024-03-07T04:01:59;102870.13;;;17.77;21.90
13478;BME280;12598;62.382;17.344;2024-03-07T04:03:01;102874.63;;;17.77;21.58
13478;BME280;12598;62.382;17.344;2024-03-07T04:04:04;102883.50;;;17.77;21.50
13478;BME280;12598;62.382;17.344;2024-03-07T04:05:07;102870.31;;;17.74;21.48
13478;BME280;12598;62.382;17.344;2024-03-07T04:06:10;102880.84;;;17.77;21.48
13478;BME280;12598;62.382;17.344;2024-03-07T04:07:12;102872.03;;;17.75;21.49
13478;BME280;12598;62.382;17.344;2024-03-07T04:08:14;102854.47;;;17.71;21.83
13478;BME280;12598;62.382;17.344;2024-03-07T04:09:16;102868.53;;;17.75;21.53
13478;BME280;12598;62.382;17.344;2024-03-07T04:10:18;102874.72;;;17.75;21.95
13478;BME280;12598;62.382;17.344;2024-03-07T04:11:20;102866.69;;;17.75;21.89
13478;BME280;12598;62.382;17.344;2024-03-07T04:12:21;102863.44;;;17.70;21.64
13478;BME280;12598;62.382;17.344;2024-03-07T04:13:23;102872.03;;;17.75;21.19
13478;BME280;12598;62.382;17.344;2024-03-07T04:14:25;102879.13;;;17.76;21.75
13478;BME280;12598;62.382;17.344;2024-03-07T04:15:27;102873.75;;;17.76;21.44
13478;BME280;12598;62.382;17.344;2024-03-07T04:16:36;102872.72;;;17.79;21.47
13478;BME280;12598;62.382;17.344;2024-03-07T04:17:38;102875.47;;;17.77;21.47
13478;BME280;12598;62.382;17.344;2024-03-07T04:18:40;102868.41;;;17.76;21.72
13478;BME280;12598;62.382;17.344;2024-03-07T04:19:42;102860.75;;;17.70;21.80
13478;BME280;12598;62.382;17.344;2024-03-07T04:20:44;102873.94;;;17.73;21.53
13478;BME280;12598;62.382;17.344;2024-03-07T04:21:46;102879.13;;;17.76;21.34
13478;BME280;12598;62.382;17.344;2024-03-07T04:22:48;102866.69;;;17.75;21.50
13478;BME280;12598;62.382;17.344;2024-03-07T04:23:51;102866.88;;;17.72;21.68
13478;BME280;12598;62.382;17.344;2024-03-07T04:24:53;102865.75;;;17.76;21.61
13478;BME280;12598;62.382;17.344;2024-03-07T04:25:56;102872.03;;;17.75;21.89
13478;BME280;12598;62.382;17.344;2024-03-07T04:26:59;102868.53;;;17.75;21.70
13478;BME280;12598;62.382;17.344;2024-03-07T04:28:01;102869.38;;;17.75;21.37
13478;BME280;12598;62.382;17.344;2024-03-07T04:29:04;102873.75;;;17.76;21.35
13478;BME280;12598;62.382;17.344;2024-03-07T04:30:07;102867.66;;;17.74;21.70
13478;BME280;12598;62.382;17.344;2024-03-07T04:31:09;102872.91;;;17.76;21.51
13478;BME280;12598;62.382;17.344;2024-03-07T04:32:11;102869.38;;;17.75;21.76
13478;BME280;12598;62.382;17.344;2024-03-07T04:33:13;102870.31;;;17.74;21.44
13478;BME280;12598;62.382;17.344;2024-03-07T04:34:15;102870.31;;;17.74;21.30
13478;BME280;12598;62.382;17.344;2024-03-07T04:35:17;102869.38;;;17.75;21.70
13478;BME280;12598;62.382;17.344;2024-03-07T04:36:20;102870.31;;;17.74;21.27
13478;BME280;12598;62.382;17.344;2024-03-07T04:37:23;102858.28;;;17.67;21.82
13478;BME280;12598;62.382;17.344;2024-03-07T04:38:25;102860.56;;;17.73;21.64
13478;BME280;12598;62.382;17.344;2024-03-07T04:39:29;102867.75;;;17.73;21.43
13478;BME280;12598;62.382;17.344;2024-03-07T04:40:34;102872.16;;;17.74;21.33
13478;BME280;12598;62.382;17.344;2024-03-07T04:41:36;102868.59;;;17.73;21.55
13478;BME280;12598;62.382;17.344;2024-03-07T04:42:38;102861.53;;;17.72;21.58
13478;BME280;12598;62.382;17.344;2024-03-07T04:43:40;102867.75;;;17.73;21.37
13478;BME280;12598;62.382;17.344;2024-03-07T04:44:44;102858.84;;;17.72;21.76
13478;BME280;12598;62.382;17.344;2024-03-07T04:45:46;102852.94;;;17.67;21.71
13478;BME280;12598;62.382;17.344;2024-03-07T04:46:48;102859.81;;;17.71;21.55
13478;BME280;12598;62.382;17.344;2024-03-07T04:47:51;102861.53;;;17.72;21.80
13478;BME280;12598;62.382;17.344;2024-03-07T04:48:53;102866.88;;;17.72;21.56
13478;BME280;12598;62.382;17.344;2024-03-07T04:49:54;102871.41;;;17.72;21.67
13478;BME280;12598;62.382;17.344;2024-03-07T04:50:57;102856.47;;;17.68;21.52
13478;BME280;12598;62.382;17.344;2024-03-07T04:52:01;102860.75;;;17.70;21.37
13478;BME280;12598;62.382;17.344;2024-03-07T04:53:03;102862.50;;;17.71;21.62
13478;BME280;12598;62.382;17.344;2024-03-07T04:54:05;102867.06;;;17.69;21.28
13478;BME280;12598;62.382;17.344;2024-03-07T04:55:09;102861.72;;;17.69;21.54
13478;BME280;12598;62.382;17.344;2024-03-07T04:56:12;102854.56;;;17.70;21.59
13478;BME280;12598;62.382;17.344;2024-03-07T04:57:16;102865.28;;;17.70;21.12
13478;BME280;12598;62.382;17.344;2024-03-07T04:58:17;102859.16;;;17.68;21.45
13478;BME280;12598;62.382;17.344;2024-03-07T04:59:20;102859.16;;;17.68;21.75
13478;BME280;12598;62.382;17.344;2024-03-07T05:00:22;102863.56;;;17.69;21.51
13478;BME280;12598;62.382;17.344;2024-03-07T05:01:25;102860.00;;;17.68;21.58
13478;BME280;12598;62.382;17.344;2024-03-07T05:02:27;102865.34;;;17.68;21.47
13478;BME280;12598;62.382;17.344;2024-03-07T05:03:29;102864.50;;;17.68;21.83
13478;BME280;12598;62.382;17.344;2024-03-07T05:04:31;102863.63;;;17.67;21.64
13478;BME280;12598;62.382;17.344;2024-03-07T05:05:34;102848.91;;;17.60;21.38
13478;BME280;12598;62.382;17.344;2024-03-07T05:06:36;102867.19;;;17.68;21.39
13478;BME280;12598;62.382;17.344;2024-03-07T05:07:38;102869.88;;;17.68;21.63
13478;BME280;12598;62.382;17.344;2024-03-07T05:08:40;102864.59;;;17.66;21.33
13478;BME280;12598;62.382;17.344;2024-03-07T05:09:41;102863.75;;;17.66;21.61
13478;BME280;12598;62.382;17.344;2024-03-07T05:10:43;102862.78;;;17.67;21.67
13478;BME280;12598;62.382;17.344;2024-03-07T05:11:45;102869.09;;;17.66;21.36
13478;BME280;12598;62.382;17.344;2024-03-07T05:12:47;102864.59;;;17.66;21.37
13478;BME280;12598;62.382;17.344;2024-03-07T05:13:49;102860.19;;;17.65;21.30
13478;BME280;12598;62.382;17.344;2024-03-07T05:14:51;102861.91;;;17.66;21.32
13478;BME280;12598;62.382;17.344;2024-03-07T05:15:53;102868.16;;;17.67;21.78
13478;BME280;12598;62.382;17.344;2024-03-07T05:16:54;102855.72;;;17.66;21.50
13478;BME280;12598;62.382;17.344;2024-03-07T05:18:10;102865.34;;;17.68;21.48
13478;BME280;12598;62.382;17.344;2024-03-07T05:19:14;102865.34;;;17.68;21.65
13478;BME280;12598;62.382;17.344;2024-03-07T05:20:16;102860.19;;;17.65;21.58
13478;BME280;12598;62.382;17.344;2024-03-07T05:21:18;102861.91;;;17.66;21.24
13478;BME280;12598;62.382;17.344;2024-03-07T05:22:39;102860.75;;;17.70;21.49